Time;durP1;ratioP1;P1;durP2;ratioP2;P2;SDS_P1;SDS_P2;PMS_P1;PMS_P2;Temp;Humidity;BMP_temperature;BMP_pressure;BME280_temperature;BME280_humidity;BME280_pressure;Samples;Min_cycle;Max_cycle;Signal;HPM_P1;HPM_P2
2023/04/13 00:00:36;;;;;;;10.70;10.10;;;;;;;5.42;51.75;92029.28;5110463;27;20231;-73
2023/04/13 00:03:03;;;;;;;10.97;10.17;;;;;;;5.41;50.54;92028.50;5110970;28;20249;-73
2023/04/13 00:05:28;;;;;;;10.23;9.63;;;;;;;5.30;51.78;92021.78;5109523;27;20227;-74
2023/04/13 00:07:54;;;;;;;9.97;9.47;;;;;;;5.22;49.16;92035.25;5110047;28;20195;-74
2023/04/13 00:10:20;;;;;;;9.60;9.20;;;;;;;5.24;48.15;92028.03;5109519;28;20240;-73
2023/04/13 00:12:46;;;;;;;9.33;8.70;;;;;;;5.22;47.74;92019.72;5108611;28;20183;-74
2023/04/13 00:15:16;;;;;;;10.67;9.97;;;;;;;5.30;49.17;92044.31;5108334;28;20311;-73
2023/04/13 00:17:44;;;;;;;9.57;9.17;;;;;;;5.24;52.04;92050.53;5109668;28;20191;-74
2023/04/13 00:20:14;;;;;;;9.60;9.03;;;;;;;5.18;50.92;92034.22;5109399;28;20236;-74
2023/04/13 00:22:44;;;;;;;9.30;8.90;;;;;;;5.07;53.59;92031.91;5109980;28;20187;-74
2023/04/13 00:25:11;;;;;;;10.13;9.63;;;;;;;5.01;54.18;92027.75;5110410;28;20223;-74
2023/04/13 00:27:41;;;;;;;9.73;9.23;;;;;;;5.02;54.94;92047.41;5109364;28;20189;-74
2023/04/13 00:30:08;;;;;;;10.20;9.50;;;;;;;4.99;55.71;92048.72;5108907;27;20216;-74
2023/04/13 00:32:35;;;;;;;9.70;9.07;;;;;;;4.88;55.95;92035.00;5110047;28;20176;-74
2023/04/13 00:35:01;;;;;;;8.83;8.50;;;;;;;4.66;54.36;92037.03;5106418;28;20215;-74
2023/04/13 00:37:28;;;;;;;10.20;9.37;;;;;;;4.57;55.96;92022.28;5109679;28;20184;-75
2023/04/13 00:39:53;;;;;;;10.47;9.83;;;;;;;4.43;54.99;92013.47;5108844;28;20223;-74
2023/04/13 00:42:19;;;;;;;9.47;9.07;;;;;;;4.41;55.86;92007.78;5108601;28;20187;-75
2023/04/13 00:44:44;;;;;;;10.07;9.57;;;;;;;4.59;55.14;92026.16;5110166;28;20223;-74
2023/04/13 00:47:11;;;;;;;10.03;9.47;;;;;;;4.42;54.76;92024.84;5109595;28;20176;-73
2023/04/13 00:49:37;;;;;;;10.07;9.37;;;;;;;4.24;57.17;92010.59;5112041;28;20184;-74
2023/04/13 00:52:03;;;;;;;8.83;8.43;;;;;;;4.35;56.84;92040.59;5109166;28;20872;-74
2023/04/13 00:54:30;;;;;;;9.33;8.93;;;;;;;4.33;58.50;92042.66;5109249;28;20219;-74
2023/04/13 00:56:57;;;;;;;10.80;10.23;;;;;;;4.43;57.96;92041.91;5108979;28;20196;-74
2023/04/13 00:59:26;;;;;;;10.10;9.23;;;;;;;4.34;56.92;92040.84;5108959;27;20239;-74
2023/04/13 01:01:55;;;;;;;9.13;8.73;;;;;;;4.14;57.09;92010.56;5109674;28;20298;-75
2023/04/13 01:04:24;;;;;;;10.27;9.73;;;;;;;4.19;58.09;92039.00;5110925;28;20241;-74
2023/04/13 01:06:53;;;;;;;10.00;9.23;;;;;;;4.15;58.63;92034.59;5111085;28;20207;-74
2023/04/13 01:09:29;;;;;;;11.03;10.33;;;;;;;3.88;57.89;91990.84;5108736;28;20256;-74
2023/04/13 01:12:05;;;;;;;10.23;9.53;;;;;;;4.09;57.99;92031.22;5108046;28;20238;-74
2023/04/13 01:14:40;;;;;;;10.73;10.23;;;;;;;3.92;57.46;92015.13;5109248;28;20188;-74
2023/04/13 01:17:15;;;;;;;10.67;9.93;;;;;;;4.09;57.83;92033.03;5108805;28;20764;-74
2023/04/13 01:19:55;;;;;;;9.60;9.10;;;;;;;4.10;58.57;92043.09;5110413;27;20223;-74
2023/04/13 01:22:26;;;;;;;11.00;10.33;;;;;;;4.03;59.03;92039.19;5107739;28;20217;-73
2023/04/13 01:25:10;;;;;;;9.97;9.47;;;;;;;4.00;57.98;92037.88;5106435;28;20227;-74
2023/04/13 01:28:01;;;;;;;10.07;9.67;;;;;;;3.98;56.03;92034.00;5108920;28;20180;-74
2023/04/13 01:30:30;;;;;;;10.67;10.07;;;;;;;3.90;56.13;92037.84;5106300;28;20353;-74
2023/04/13 01:32:57;;;;;;;9.47;8.97;;;;;;;3.90;55.57;92022.38;5109319;28;20184;-74
2023/04/13 01:35:24;;;;;;;9.87;9.27;;;;;;;3.99;57.17;92040.72;5109118;28;20215;-72
2023/04/13 01:37:51;;;;;;;9.83;9.20;;;;;;;3.85;56.49;92045.56;5108932;28;20256;-74
2023/04/13 01:40:21;;;;;;;9.87;9.30;;;;;;;3.67;57.61;92007.31;5108052;28;20255;-73
2023/04/13 01:42:47;;;;;;;10.93;10.13;;;;;;;3.78;56.66;92050.19;5109136;28;20188;-74
2023/04/13 01:45:19;;;;;;;10.70;10.03;;;;;;;3.75;58.75;92039.59;5108070;28;20228;-73
2023/04/13 01:48:12;;;;;;;10.67;10.07;;;;;;;3.63;57.13;92039.78;5110893;28;20188;-74
2023/04/13 01:50:44;;;;;;;11.97;11.17;;;;;;;3.64;55.50;92037.97;5108922;28;20884;-74
2023/04/13 01:53:16;;;;;;;11.93;10.93;;;;;;;3.42;56.41;91998.66;5112100;28;20187;-71
2023/04/13 01:55:43;;;;;;;10.53;9.80;;;;;;;3.68;55.11;92024.34;5111676;28;20273;-71
2023/04/13 01:58:12;;;;;;;10.77;10.20;;;;;;;3.63;55.26;92026.88;5111478;28;20192;-70
2023/04/13 02:00:38;;;;;;;8.83;8.43;;;;;;;3.73;53.65;92019.19;5111884;28;20295;-70
2023/04/13 02:03:05;;;;;;;9.53;9.03;;;;;;;3.63;54.25;92024.28;5113049;28;20212;-70
2023/04/13 02:05:32;;;;;;;10.23;9.53;;;;;;;3.42;53.72;91994.28;5102665;28;20292;-70
2023/04/13 02:07:58;;;;;;;10.60;9.93;;;;;;;3.60;55.04;92026.59;5092138;28;20181;-70
2023/04/13 02:10:25;;;;;;;9.47;9.07;;;;;;;3.63;54.56;92026.13;5101016;28;20228;-70
2023/04/13 02:12:53;;;;;;;9.23;8.77;;;;;;;3.76;54.88;92020.50;5111494;28;20195;-71
2023/04/13 02:15:19;;;;;;;9.33;8.73;;;;;;;3.73;55.56;92034.69;5109817;27;20219;-71
2023/04/13 02:17:44;;;;;;;9.50;9.10;;;;;;;3.60;55.21;92017.06;5112665;28;20177;-70
2023/04/13 02:20:11;;;;;;;9.97;9.43;;;;;;;3.72;54.20;92042.69;5112438;28;20234;-71
2023/04/13 02:22:38;;;;;;;9.03;8.73;;;;;;;3.62;55.47;92040.03;5112492;28;20184;-71
2023/04/13 02:25:05;;;;;;;10.03;9.33;;;;;;;3.61;55.09;92049.56;5112176;28;20230;-70
2023/04/13 02:27:31;;;;;;;9.17;8.77;;;;;;;3.58;57.36;92041.56;5112700;28;20176;-72
2023/04/13 02:29:56;;;;;;;9.00;8.60;;;;;;;3.52;58.15;92040.75;5111989;27;20224;-71
2023/04/13 02:32:23;;;;;;;9.30;8.80;;;;;;;3.41;58.42;92033.22;5113446;28;20204;-71
2023/04/13 02:34:49;;;;;;;9.37;8.87;;;;;;;3.44;60.05;92037.88;5112126;28;20232;-71
2023/04/13 02:37:14;;;;;;;10.30;9.80;;;;;;;3.53;59.60;92057.00;5111599;28;20196;-71
2023/04/13 02:39:40;;;;;;;9.40;9.00;;;;;;;3.28;58.53;92031.84;5111123;28;20254;-71
2023/04/13 02:42:06;;;;;;;9.87;9.47;;;;;;;3.37;59.11;92055.34;5112651;28;20462;-72
2023/04/13 02:44:32;;;;;;;8.73;8.43;;;;;;;3.48;57.85;92059.56;5111046;28;20189;-70
2023/04/13 02:46:58;;;;;;;9.47;8.97;;;;;;;3.43;57.74;92059.53;5112213;28;20176;-70
2023/04/13 02:49:23;;;;;;;9.20;8.80;;;;;;;3.48;59.56;92052.59;5112115;27;20210;-71
2023/04/13 02:51:49;;;;;;;9.67;9.17;;;;;;;3.52;59.06;92056.22;5112134;28;20243;-71
2023/04/13 02:54:15;;;;;;;10.77;10.00;;;;;;;3.38;59.66;92070.59;5113217;28;20257;-70
2023/04/13 02:56:42;;;;;;;8.97;8.57;;;;;;;3.55;59.75;92065.28;5111411;27;20215;-71
2023/04/13 02:59:07;;;;;;;8.77;8.43;;;;;;;3.47;60.70;92047.69;5111621;28;20216;-71
2023/04/13 03:01:33;;;;;;;9.23;8.83;;;;;;;3.42;59.87;92052.81;5110236;28;20277;-72
2023/04/13 03:03:58;;;;;;;9.87;8.97;;;;;;;3.62;61.25;92064.03;5113488;28;20192;-70
2023/04/13 03:06:24;;;;;;;10.03;9.63;;;;;;;3.37;60.75;92058.72;5111835;28;20232;-71
2023/04/13 03:08:50;;;;;;;9.43;9.03;;;;;;;3.43;60.74;92064.69;5111512;28;20211;-71
2023/04/13 03:11:17;;;;;;;9.23;8.83;;;;;;;3.57;61.05;92063.22;5111686;28;20235;-71
2023/04/13 03:13:42;;;;;;;9.53;9.10;;;;;;;3.46;61.06;92034.00;5110919;28;20184;-71
2023/04/13 03:16:10;;;;;;;9.13;8.53;;;;;;;3.61;60.86;92065.06;5112208;27;20295;-71
2023/04/13 03:18:37;;;;;;;9.50;9.03;;;;;;;3.48;62.66;92069.88;5110950;28;20200;-72
2023/04/13 03:21:04;;;;;;;9.37;9.03;;;;;;;3.22;60.87;92050.91;5111393;28;20216;-71
2023/04/13 03:23:30;;;;;;;8.93;8.33;;;;;;;3.31;62.38;92057.13;5111433;28;20934;-71
2023/04/13 03:25:55;;;;;;;9.30;8.90;;;;;;;3.12;61.65;92084.34;5112344;28;20252;-71
2023/04/13 03:28:21;;;;;;;9.90;9.50;;;;;;;3.35;61.36;92070.31;5111239;28;20196;-71
2023/04/13 03:30:49;;;;;;;10.10;9.60;;;;;;;3.15;61.80;92082.03;5111793;28;20224;-71
2023/04/13 03:33:14;;;;;;;10.17;9.57;;;;;;;3.36;62.13;92071.88;5111217;28;20192;-72
2023/04/13 03:35:40;;;;;;;9.73;9.23;;;;;;;3.39;61.57;92067.00;5110502;28;20246;-71
2023/04/13 03:38:06;;;;;;;9.23;8.80;;;;;;;3.38;62.88;92075.75;5108819;28;20180;-71
2023/04/13 03:40:31;;;;;;;9.60;9.03;;;;;;;3.41;63.97;92075.25;5110286;28;20220;-71
2023/04/13 03:42:56;;;;;;;8.77;8.37;;;;;;;3.22;64.09;92084.41;5110639;28;20199;-71
2023/04/13 03:45:22;;;;;;;9.20;8.70;;;;;;;3.43;64.11;92083.53;5110284;27;20220;-71
2023/04/13 03:47:47;;;;;;;9.23;8.93;;;;;;;3.28;64.91;92081.59;5110832;28;20191;-72
2023/04/13 03:50:13;;;;;;;10.57;9.53;;;;;;;3.11;63.85;92069.91;5110414;27;20232;-71
2023/04/13 03:52:39;;;;;;;9.03;8.63;;;;;;;3.24;64.14;92083.13;5110450;28;20191;-72
2023/04/13 03:55:05;;;;;;;10.67;9.77;;;;;;;3.36;64.84;92082.97;5110859;28;20287;-71
2023/04/13 03:57:32;;;;;;;9.37;8.67;;;;;;;3.28;63.94;92065.38;5110504;28;20191;-71
2023/04/13 03:59:57;;;;;;;9.77;9.33;;;;;;;3.28;64.71;92070.53;5109847;28;20259;-71
2023/04/13 04:02:23;;;;;;;10.93;10.23;;;;;;;3.35;65.08;92080.66;5110956;28;20279;-71
2023/04/13 04:04:48;;;;;;;9.27;8.67;;;;;;;3.44;65.32;92079.91;5106089;28;20254;-71
2023/04/13 04:07:13;;;;;;;10.30;9.83;;;;;;;3.40;63.71;92089.19;5090264;28;20189;-71
2023/04/13 04:09:40;;;;;;;9.37;8.87;;;;;;;3.49;63.44;92086.94;5090484;28;20229;-72
2023/04/13 04:12:06;;;;;;;9.43;9.10;;;;;;;3.35;63.69;92083.97;5088216;28;20189;-68
2023/04/13 04:14:31;;;;;;;10.53;9.97;;;;;;;3.48;65.26;92087.94;5086860;28;20180;-68
2023/04/13 04:16:56;;;;;;;10.20;9.80;;;;;;;3.64;63.93;92092.19;5098571;28;20189;-67
2023/04/13 04:19:22;;;;;;;9.00;8.33;;;;;;;3.74;64.16;92089.63;5099838;28;20276;-67
2023/04/13 04:21:48;;;;;;;9.53;8.83;;;;;;;3.67;64.50;92082.16;5096702;28;20271;-67
2023/04/13 04:24:21;;;;;;;14.77;9.83;;;;;;;3.76;64.58;92087.59;5101241;28;20300;-67
2023/04/13 04:26:53;;;;;;;10.30;9.60;;;;;;;3.93;63.71;92104.47;5107328;28;20219;-67
2023/04/13 04:29:32;;;;;;;9.43;8.70;;;;;;;4.09;62.63;92100.97;5108305;28;20187;-69
2023/04/13 04:31:58;;;;;;;9.43;8.87;;;;;;;4.11;62.78;92088.53;5107653;28;20200;-68
2023/04/13 04:34:24;;;;;;;8.97;8.43;;;;;;;4.22;62.53;92084.19;5109116;28;20211;-69
2023/04/13 04:36:50;;;;;;;9.57;8.83;;;;;;;4.42;62.13;92108.31;5108621;28;20218;-68
2023/04/13 04:39:21;;;;;;;9.87;9.33;;;;;;;4.43;62.67;92084.03;5108614;28;20216;-68
2023/04/13 04:41:47;;;;;;;10.17;9.57;;;;;;;4.50;62.61;92100.06;5086608;28;20232;-68
2023/04/13 04:44:15;;;;;;;9.47;8.97;;;;;;;4.66;62.10;92098.31;5088842;28;20271;-70
2023/04/13 04:46:42;;;;;;;9.67;9.00;;;;;;;4.81;62.07;92106.88;5085886;28;20229;-69
2023/04/13 04:49:08;;;;;;;9.37;8.87;;;;;;;4.70;60.75;92096.78;5087810;28;20224;-70
2023/04/13 04:51:35;;;;;;;9.93;9.13;;;;;;;4.96;60.53;92112.06;5107403;28;20231;-69
2023/04/13 04:54:02;;;;;;;9.40;8.93;;;;;;;4.93;59.87;92115.16;5108789;28;20184;-69
2023/04/13 04:56:28;;;;;;;10.10;9.57;;;;;;;4.91;59.38;92121.63;5108800;28;20245;-70
2023/04/13 04:58:53;;;;;;;10.90;10.00;;;;;;;5.21;59.66;92120.91;5108945;28;20219;-68
2023/04/13 05:01:21;;;;;;;10.53;9.83;;;;;;;5.29;59.78;92107.44;5107773;28;20234;-69
2023/04/13 05:03:47;;;;;;;9.37;8.87;;;;;;;5.71;58.44;92110.53;5108134;28;20180;-69
2023/04/13 05:06:12;;;;;;;10.43;9.83;;;;;;;5.50;58.36;92121.94;5107313;27;20295;-69
2023/04/13 05:08:38;;;;;;;10.03;9.53;;;;;;;5.50;58.66;92114.16;5108016;28;20192;-68
2023/04/13 05:11:07;;;;;;;11.10;10.07;;;;;;;5.77;57.83;92115.47;5108333;28;20248;-68
2023/04/13 05:13:32;;;;;;;10.13;9.43;;;;;;;5.75;57.19;92107.16;5108095;28;20235;-69
2023/04/13 05:15:58;;;;;;;10.23;9.50;;;;;;;5.91;57.04;92115.72;5107376;28;20243;-69
2023/04/13 05:18:24;;;;;;;9.93;9.50;;;;;;;6.06;56.97;92113.88;5107204;28;20187;-69
2023/04/13 05:20:50;;;;;;;9.63;9.13;;;;;;;6.16;55.68;92105.31;5107734;27;20219;-68
2023/04/13 05:23:15;;;;;;;11.50;10.67;;;;;;;5.90;56.41;92119.34;5108159;28;20195;-68
2023/04/13 05:25:41;;;;;;;11.10;10.30;;;;;;;6.21;55.66;92111.22;5105138;28;20224;-68
2023/04/13 05:28:06;;;;;;;9.80;9.20;;;;;;;6.26;55.58;92111.22;5112626;28;20191;-71
2023/04/13 05:30:32;;;;;;;12.03;11.13;;;;;;;6.38;55.20;92101.31;5110586;27;20234;-69
2023/04/13 05:32:57;;;;;;;9.93;9.23;;;;;;;6.51;54.77;92116.31;5109164;28;20191;-70
2023/04/13 05:35:25;;;;;;;12.07;10.47;;;;;;;6.40;55.67;92129.56;5111788;28;20230;-70
2023/04/13 05:37:50;;;;;;;12.47;11.20;;;;;;;6.48;54.96;92100.50;5110813;28;20207;-68
2023/04/13 05:40:16;;;;;;;15.90;10.03;;;;;;;6.69;54.82;92112.38;5110373;28;20235;-69
2023/04/13 05:42:42;;;;;;;11.13;10.03;;;;;;;6.61;55.18;92105.13;5111775;28;20195;-68
2023/04/13 05:45:09;;;;;;;11.33;10.53;;;;;;;6.65;54.34;92115.72;5111447;27;20239;-68
2023/04/13 05:47:35;;;;;;;9.67;8.97;;;;;;;6.91;54.13;92125.72;5111987;28;20733;-68
2023/04/13 05:50:01;;;;;;;10.97;10.07;;;;;;;7.17;53.30;92121.97;5109707;27;20224;-68
2023/04/13 05:52:26;;;;;;;14.60;9.23;;;;;;;7.43;51.82;92128.53;5112174;28;20187;-68
2023/04/13 05:54:52;;;;;;;10.47;9.53;;;;;;;7.57;50.82;92124.25;5112339;28;20219;-70
2023/04/13 05:57:20;;;;;;;10.53;9.87;;;;;;;8.87;48.83;92132.59;5111570;28;20270;-68
2023/04/13 05:59:45;;;;;;;9.43;8.87;;;;;;;11.39;42.21;92114.97;5111870;28;20227;-68
2023/04/13 06:02:11;;;;;;;9.87;9.10;;;;;;;13.34;37.78;92111.03;5108958;28;20227;-69
2023/04/13 06:04:36;;;;;;;10.20;9.00;;;;;;;10.86;41.17;92111.38;5111182;28;20286;-68
2023/04/13 06:07:02;;;;;;;10.23;9.47;;;;;;;9.26;44.78;92120.09;5111556;28;20259;-68
2023/04/13 06:09:28;;;;;;;10.07;9.47;;;;;;;8.40;47.86;92116.25;5110526;28;20184;-68
2023/04/13 06:11:54;;;;;;;10.27;9.37;;;;;;;8.14;48.97;92113.88;5111536;28;20206;-68
2023/04/13 06:14:20;;;;;;;11.00;8.93;;;;;;;8.11;49.28;92124.81;5111212;28;20195;-71
2023/04/13 06:16:46;;;;;;;11.23;10.33;;;;;;;7.64;50.52;92051.22;5111532;28;20204;-70
2023/04/13 06:19:11;;;;;;;11.37;10.47;;;;;;;8.24;49.54;92117.44;5111517;28;20208;-69
2023/04/13 06:21:37;;;;;;;10.10;9.47;;;;;;;8.26;49.54;92120.56;5112188;28;20254;-70
2023/04/13 06:24:02;;;;;;;11.43;10.47;;;;;;;8.39;49.70;92125.09;5110272;28;20229;-69
2023/04/13 06:26:28;;;;;;;10.40;9.73;;;;;;;8.52;48.83;92130.41;5110522;27;20231;-70
2023/04/13 06:28:53;;;;;;;10.03;9.47;;;;;;;8.53;49.19;92131.19;5109501;28;20193;-69
2023/04/13 06:31:20;;;;;;;11.07;10.10;;;;;;;8.62;49.18;92119.91;5111207;28;20227;-69
2023/04/13 06:33:45;;;;;;;11.10;9.53;;;;;;;8.78;49.77;92128.31;5107945;28;20218;-70
2023/04/13 06:36:11;;;;;;;9.03;8.63;;;;;;;8.81;47.50;92132.94;5114412;28;20224;-70
2023/04/13 06:38:36;;;;;;;11.27;10.37;;;;;;;8.40;49.42;92122.22;5101456;28;20202;-70
2023/04/13 06:41:03;;;;;;;10.30;9.53;;;;;;;8.65;48.64;92134.97;5106662;28;20239;-70
2023/04/13 06:43:29;;;;;;;9.97;9.47;;;;;;;8.39;50.84;92130.31;5110524;28;20251;-73
2023/04/13 06:45:59;;;;;;;9.93;9.03;;;;;;;8.99;48.42;92129.59;5110741;28;20231;-71
2023/04/13 06:48:25;;;;;;;10.77;9.97;;;;;;;8.94;48.56;92124.44;5111322;28;20184;-70
2023/04/13 06:50:51;;;;;;;10.63;9.87;;;;;;;8.92;47.61;92110.94;5110481;28;20238;-69
2023/04/13 06:53:17;;;;;;;10.13;9.53;;;;;;;8.90;47.84;92107.84;5110713;28;20199;-70
2023/04/13 06:55:44;;;;;;;10.03;9.53;;;;;;;9.24;47.27;92108.41;5106659;28;20227;-73
2023/04/13 06:58:10;;;;;;;10.53;9.93;;;;;;;9.48;46.23;92132.53;5110260;28;20218;-69
2023/04/13 07:00:36;;;;;;;10.20;9.33;;;;;;;9.57;46.92;92133.47;5109209;28;20220;-65
2023/04/13 07:03:02;;;;;;;10.70;9.80;;;;;;;9.78;45.85;92139.91;5109742;28;20237;-68
2023/04/13 07:05:28;;;;;;;10.60;9.67;;;;;;;9.47;45.57;92137.00;5109890;28;20241;-68
2023/04/13 07:07:53;;;;;;;9.90;9.30;;;;;;;9.58;45.21;92137.63;5109745;28;20277;-69
2023/04/13 07:10:19;;;;;;;9.90;8.73;;;;;;;9.42;44.96;92077.16;5108803;28;20235;-69
2023/04/13 07:12:44;;;;;;;10.87;9.83;;;;;;;10.00;44.42;92140.09;5110826;28;20192;-68
2023/04/13 07:15:09;;;;;;;11.00;10.13;;;;;;;10.17;44.21;92140.34;5109541;28;20243;-68
2023/04/13 07:17:35;;;;;;;11.23;10.40;;;;;;;10.14;43.38;92142.75;5108147;28;20225;-68
2023/04/13 07:20:01;;;;;;;10.20;9.33;;;;;;;10.09;44.12;92138.41;5109335;28;20266;-69
2023/04/13 07:22:30;;;;;;;11.30;10.57;;;;;;;10.30;43.66;92137.00;5109945;28;20196;-68
2023/04/13 07:24:56;;;;;;;12.07;11.10;;;;;;;10.17;43.44;92140.34;5109225;28;20219;-69
2023/04/13 07:27:21;;;;;;;11.30;10.40;;;;;;;10.41;44.34;92137.59;5107870;28;20196;-69
2023/04/13 07:29:50;;;;;;;11.00;10.33;;;;;;;10.46;43.29;92127.06;5107656;28;20255;-69
2023/04/13 07:32:16;;;;;;;11.80;10.90;;;;;;;10.52;43.81;92137.09;5109736;28;20192;-68
2023/04/13 07:34:41;;;;;;;10.33;9.63;;;;;;;10.62;43.69;92131.72;5108241;28;20593;-67
2023/04/13 07:37:06;;;;;;;16.33;11.20;;;;;;;10.65;44.08;92125.91;5108814;28;20218;-68
2023/04/13 07:39:32;;;;;;;11.27;10.23;;;;;;;10.66;43.85;92131.91;5110240;28;20208;-68
2023/04/13 07:41:57;;;;;;;11.20;10.40;;;;;;;10.89;44.14;92120.47;5110094;28;20192;-68
2023/04/13 07:44:23;;;;;;;11.13;10.33;;;;;;;11.15;42.91;92124.91;5106896;28;20952;-68
2023/04/13 07:46:48;;;;;;;10.03;9.17;;;;;;;11.08;42.24;92115.91;5110676;28;20192;-67
2023/04/13 07:49:13;;;;;;;11.57;10.37;;;;;;;10.79;43.30;92129.28;5107755;28;20196;-68
2023/04/13 07:51:39;;;;;;;10.50;9.70;;;;;;;11.29;42.48;92123.03;5109340;28;20242;-67
2023/04/13 07:54:05;;;;;;;10.43;9.63;;;;;;;11.32;41.95;92130.28;5109454;28;20257;-69
2023/04/13 07:56:30;;;;;;;15.40;10.10;;;;;;;11.03;42.99;92121.25;5108283;28;20261;-69
2023/04/13 07:58:55;;;;;;;9.83;9.20;;;;;;;11.26;42.83;92115.78;5109624;28;20209;-69
2023/04/13 08:01:21;;;;;;;10.60;9.87;;;;;;;11.50;43.78;92125.19;5108646;28;20236;-69
2023/04/13 08:03:46;;;;;;;10.10;9.40;;;;;;;11.49;42.05;92118.44;5109106;28;20192;-68
2023/04/13 08:06:12;;;;;;;9.57;8.87;;;;;;;11.76;42.18;92123.59;5108929;28;20224;-68
2023/04/13 08:08:37;;;;;;;11.10;10.03;;;;;;;11.88;41.58;92121.19;5108803;28;20191;-70
2023/04/13 08:11:03;;;;;;;10.97;10.13;;;;;;;11.91;41.78;92123.22;5108984;28;20227;-71
2023/04/13 08:13:29;;;;;;;10.47;9.43;;;;;;;11.85;40.96;92106.09;5109305;28;20190;-71
2023/04/13 08:15:55;;;;;;;10.37;9.67;;;;;;;11.85;41.70;92087.78;5110665;28;20227;-72
2023/04/13 08:18:22;;;;;;;9.77;9.23;;;;;;;12.06;40.86;92128.84;5110829;28;20184;-71
2023/04/13 08:20:47;;;;;;;9.27;8.37;;;;;;;12.14;40.47;92124.78;5109513;28;20334;-72
2023/04/13 08:23:13;;;;;;;9.97;8.90;;;;;;;12.08;40.27;92115.47;5110773;28;20265;-72
2023/04/13 08:25:40;;;;;;;9.80;9.00;;;;;;;11.84;41.66;92113.19;5113274;28;20217;-72
2023/04/13 08:28:06;;;;;;;9.97;9.13;;;;;;;12.04;40.49;92111.94;5110144;28;20193;-71
2023/04/13 08:30:32;;;;;;;9.70;9.10;;;;;;;12.12;40.58;92106.75;5111073;28;20276;-72
2023/04/13 08:32:58;;;;;;;9.70;9.07;;;;;;;12.21;41.03;92096.31;5109837;28;20200;-72
2023/04/13 08:35:23;;;;;;;9.60;8.90;;;;;;;11.96;40.99;92104.78;5110448;28;20230;-71
2023/04/13 08:37:49;;;;;;;11.27;10.17;;;;;;;12.09;41.50;92090.88;5110086;28;20184;-71
2023/04/13 08:40:17;;;;;;;11.33;10.10;;;;;;;12.27;41.59;92102.97;5110522;28;20225;-71
2023/04/13 08:42:42;;;;;;;9.47;8.87;;;;;;;12.52;41.64;92103.09;5109760;28;20199;-72
2023/04/13 08:45:09;;;;;;;11.77;10.73;;;;;;;12.70;41.02;92090.84;5109047;28;20235;-69
2023/04/13 08:47:35;;;;;;;10.40;9.80;;;;;;;12.98;39.56;92086.91;5109445;28;20197;-68
2023/04/13 08:50:01;;;;;;;11.20;10.47;;;;;;;13.13;39.25;92099.63;5109244;28;20240;-68
2023/04/13 08:52:27;;;;;;;10.67;9.87;;;;;;;13.05;39.26;92102.97;5109546;28;20188;-69
2023/04/13 08:54:55;;;;;;;10.30;9.03;;;;;;;13.19;39.99;92093.16;5109561;28;20277;-68
2023/04/13 08:57:21;;;;;;;11.70;10.63;;;;;;;13.34;38.42;92100.56;5107236;28;20195;-68
2023/04/13 08:59:51;;;;;;;9.27;8.63;;;;;;;13.52;38.38;92107.38;5106715;28;20230;-69
2023/04/13 09:02:23;;;;;;;9.97;9.20;;;;;;;13.52;38.03;92096.88;5107804;28;20287;-70
2023/04/13 09:04:52;;;;;;;9.73;9.00;;;;;;;13.56;38.56;92103.03;5108188;28;20245;-69
2023/04/13 09:07:25;;;;;;;9.97;9.37;;;;;;;13.80;38.92;92098.13;5122715;28;20164;-70
2023/04/13 09:09:56;;;;;;;9.77;8.97;;;;;;;13.83;37.85;92105.38;5109855;28;20295;-72
2023/04/13 09:12:22;;;;;;;10.00;9.40;;;;;;;13.51;38.47;92105.06;5109573;28;20196;-70
2023/04/13 09:14:48;;;;;;;9.50;8.90;;;;;;;13.23;39.38;92052.13;5111424;28;20242;-76
2023/04/13 09:17:27;;;;;;;9.17;8.43;;;;;;;13.50;37.38;92098.25;5110088;28;20188;-76
2023/04/13 09:19:54;;;;;;;9.20;8.50;;;;;;;13.70;38.10;92082.69;5109787;28;20228;-77
2023/04/13 09:22:20;;;;;;;9.73;9.17;;;;;;;13.78;37.24;92066.16;5108741;28;20184;-74
2023/04/13 09:24:46;;;;;;;9.63;9.00;;;;;;;14.16;37.85;92101.13;5109956;28;20253;-77
2023/04/13 09:27:22;;;;;;;11.33;9.83;;;;;;;14.37;38.19;92088.91;5108175;28;20187;-75
2023/04/13 09:29:53;;;;;;;9.23;8.73;;;;;;;14.45;37.05;92090.75;5109176;28;20314;-70
2023/04/13 09:32:27;;;;;;;10.83;10.03;;;;;;;14.63;37.30;92094.06;5108338;28;20187;-70
2023/04/13 09:35:03;;;;;;;9.60;8.80;;;;;;;14.38;37.31;92079.94;5111532;28;20233;-71
2023/04/13 09:37:31;;;;;;;9.93;9.43;;;;;;;14.45;40.58;92076.84;5112248;28;20190;-70
2023/04/13 09:40:17;;;;;;;9.67;8.97;;;;;;;14.71;37.66;92084.63;5108659;28;20250;-71
2023/04/13 09:42:56;;;;;;;9.80;8.93;;;;;;;14.80;37.09;92080.13;5109443;28;20206;-70
2023/04/13 09:45:22;;;;;;;12.33;11.27;;;;;;;14.86;36.53;92081.47;5110192;28;20235;-70
2023/04/13 09:47:48;;;;;;;9.00;8.50;;;;;;;14.57;37.88;92069.06;5109803;28;20188;-71
2023/04/13 09:50:27;;;;;;;10.50;9.80;;;;;;;14.78;36.63;92069.13;5109321;28;20230;-71
2023/04/13 09:53:06;;;;;;;11.60;10.63;;;;;;;14.99;37.78;92064.72;5108412;28;20191;-70
2023/04/13 09:55:33;;;;;;;11.00;9.90;;;;;;;15.01;36.88;92054.63;5106672;28;20254;-69
2023/04/13 09:58:16;;;;;;;9.97;9.13;;;;;;;15.12;36.81;92061.06;5107500;28;20196;-70
2023/04/13 10:00:44;;;;;;;8.50;7.83;;;;;;;15.07;36.46;92059.38;5109703;28;20242;-70
2023/04/13 10:03:12;;;;;;;10.60;9.90;;;;;;;14.93;36.48;92055.44;5108578;28;20212;-70
2023/04/13 10:05:38;;;;;;;10.37;9.57;;;;;;;14.97;38.09;92051.09;5109625;28;20231;-70
2023/04/13 10:08:05;;;;;;;10.30;9.07;;;;;;;15.30;37.86;92049.34;5109649;28;20184;-70
2023/04/13 10:10:31;;;;;;;10.13;9.43;;;;;;;15.38;36.53;92043.28;5109341;28;20298;-71
2023/04/13 10:13:00;;;;;;;9.63;8.83;;;;;;;15.33;36.27;92044.22;5113742;28;20196;-71
2023/04/13 10:15:47;;;;;;;11.13;10.10;;;;;;;15.37;36.61;92046.97;5112090;28;20247;-71
2023/04/13 10:18:37;;;;;;;9.70;8.83;;;;;;;15.40;36.56;92038.47;5114979;28;20192;-71
2023/04/13 10:21:04;;;;;;;10.37;9.47;;;;;;;15.54;36.69;92044.25;5112919;28;20226;-71
2023/04/13 10:23:33;;;;;;;10.50;9.50;;;;;;;15.65;36.32;92037.50;5112312;28;20260;-71
2023/04/13 10:26:02;;;;;;;9.93;9.07;;;;;;;15.67;36.86;92037.94;5112121;28;20326;-71
2023/04/13 10:28:28;;;;;;;9.13;8.53;;;;;;;15.63;37.81;92035.19;5111946;28;20184;-71
2023/04/13 10:30:54;;;;;;;9.40;8.70;;;;;;;15.61;36.55;92024.22;5112357;28;20228;-71
2023/04/13 10:33:19;;;;;;;9.90;9.30;;;;;;;15.79;36.07;92024.84;5112320;28;20199;-70
2023/04/13 10:35:59;;;;;;;10.87;9.93;;;;;;;16.12;35.58;92030.88;5113012;28;20279;-69
2023/04/13 10:38:26;;;;;;;9.57;9.00;;;;;;;16.10;35.74;92038.31;5111631;28;20191;-70
2023/04/13 10:40:52;;;;;;;8.63;8.00;;;;;;;16.04;35.71;92026.44;5112506;28;20228;-70
2023/04/13 10:43:44;;;;;;;9.87;9.17;;;;;;;16.19;35.20;92027.69;5111690;28;20252;-71
2023/04/13 10:46:14;;;;;;;11.33;9.20;;;;;;;16.07;36.72;92012.63;5106513;28;20247;-71
2023/04/13 10:48:40;;;;;;;9.03;8.40;;;;;;;16.10;36.53;92022.50;5112454;28;20195;-71
2023/04/13 10:51:06;;;;;;;8.63;8.13;;;;;;;16.18;36.85;92026.16;5110546;28;20216;-70
2023/04/13 10:53:33;;;;;;;8.53;8.00;;;;;;;16.42;36.49;92021.69;5111572;28;20184;-72
2023/04/13 10:56:00;;;;;;;8.97;8.37;;;;;;;16.62;35.67;92015.59;5112095;28;20239;-71
2023/04/13 10:58:27;;;;;;;10.20;9.13;;;;;;;16.83;34.62;92020.75;5112359;28;20184;-70
2023/04/13 11:00:56;;;;;;;9.23;8.43;;;;;;;16.48;36.55;92020.41;5111004;28;20273;-70
2023/04/13 11:03:26;;;;;;;8.73;7.97;;;;;;;16.52;35.37;92008.13;5111849;28;20207;-71
2023/04/13 11:05:57;;;;;;;9.53;8.93;;;;;;;16.79;34.56;92004.84;5111482;28;20223;-70
2023/04/13 11:08:23;;;;;;;9.53;8.80;;;;;;;16.86;34.30;92009.53;5111693;28;20184;-71
2023/04/13 11:10:55;;;;;;;9.00;8.40;;;;;;;16.29;36.62;92012.25;5112393;28;20258;-70
2023/04/13 11:13:25;;;;;;;8.83;8.20;;;;;;;16.23;35.63;92008.28;5111198;28;20188;-71
2023/04/13 11:15:58;;;;;;;10.47;9.57;;;;;;;16.13;36.72;92002.66;5111103;28;20228;-71
2023/04/13 11:18:25;;;;;;;9.63;9.13;;;;;;;16.22;36.73;91995.44;5111703;28;20195;-71
2023/04/13 11:20:50;;;;;;;11.23;9.17;;;;;;;16.11;36.25;91987.16;5113571;28;20223;-70
2023/04/13 11:23:19;;;;;;;9.33;8.63;;;;;;;16.11;37.91;92002.97;5111329;28;20188;-70
2023/04/13 11:25:58;;;;;;;10.17;8.73;;;;;;;16.30;36.53;91997.97;5113222;28;20200;-71
2023/04/13 11:28:34;;;;;;;10.20;9.40;;;;;;;16.79;35.01;91996.16;5113160;28;20190;-71
2023/04/13 11:31:00;;;;;;;9.23;8.33;;;;;;;16.80;36.77;92001.09;5112626;28;20219;-70
2023/04/13 11:33:28;;;;;;;9.57;8.50;;;;;;;16.83;34.43;91995.16;5110641;28;20192;-72